Portada
METAR-TAF:

METAR-TAF

Aeroports :

Valladolid, Espanya

latitud: 41-43N, longitud: 004-51W, altitud: 849 m

Observació

L'informe es va fer fa 11 minuts, a les 05:00 UTC
Vent 6 kt del Nord-Est
Temperatura 14°C
Humitat 100%
Pressió 1019 hPa
Visibilitat: 7000 m

METAR: LEVD 100500Z 05006KT 7000 NSC 14/14 Q1019

Hora: 07:11 (05:11 UTC)

Pronòstic

L'informe es va fer fa 6 hores i 11 minuts, a les 23:00 UTC
Pronòstic vàlid del 10 a les 00 UTC al 10 a les 24 UTC
Vent 8 kt del Nord/Nord-Est
Visibilitat 10 km o més
sense núvols per sota de 1500 mi sense presència de cumulonimbus.
Probabilitat 40% :
Temporalment
l' 10 a les 18 UTC al 10 a les 24 UTC
Vent 15 kt del Nord/Nord-Est amb ràfegues de 25 kt

TAF: LEVD 092300Z 1000/1024 03008KT CAVOK TX32/1015Z TN15/1100Z PROB40 TEMPO 1018/1024 02015G25KT

Observacions i pronòstics meteorològics de més de 4000 aeroports (METAR i TAF).

Les estacions disponibles són els punts grocs i vermells al mapa.

Posi el ratolí al punt desitjat per veure el nom de l'estació.

Feu clic per veure les observacions i els pronòstics meteorològics.

Per canviar el mapa: feu clic els botons verds amb una creu de color negre per apropar; al botó verd amb un guió per allunyar la imatge; o en les fletxes verdes per a mapes adjacents.


METAR-TAF: